<?xml version="1.0" encoding="UTF-8" standalone="no" ?>
<gpx xmlns="http://www.topografix.com/GPX/1/1" xmlns:xsi="http://www.w3.org/2001/XMLSchema-instance" xsi:schemaLocation="http://www.topografix.com/GPX/1/1 http://www.topografix.com/GPX/1/1/gpx.xsd" version="1.1" creator="VisuGPX - https://www.visugpx.com">
  <metadata>
    <name>83 - M - Lorgues </name>
    <desc><![CDATA[83 - M - Lorgues : Galettes des rois
 2023-01-11]]></desc>
  </metadata>
  <trk>
    <name><![CDATA[Lorgues - Galettes des rois 2023-01-11-01]]></name>
    <trkseg>
      <trkpt lat="43.50083" lon="6.3735">
        <ele>275.9</ele>
        <time>2023-01-11T12:44:08Z</time>
      </trkpt>
      <trkpt lat="43.50083" lon="6.3735">
        <ele>275.9</ele>
        <time>2023-01-11T12:44:09Z</time>
      </trkpt>
      <trkpt lat="43.50075" lon="6.37357">
        <ele>282.2</ele>
        <time>2023-01-11T12:44:38Z</time>
      </trkpt>
      <trkpt lat="43.50082" lon="6.37366">
        <ele>282.5</ele>
        <time>2023-01-11T12:44:51Z</time>
      </trkpt>
      <trkpt lat="43.50091" lon="6.37369">
        <ele>281.3</ele>
        <time>2023-01-11T12:45:00Z</time>
      </trkpt>
      <trkpt lat="43.50099" lon="6.37363">
        <ele>281</ele>
        <time>2023-01-11T12:45:10Z</time>
      </trkpt>
      <trkpt lat="43.50107" lon="6.37354">
        <ele>280.8</ele>
        <time>2023-01-11T12:45:16Z</time>
      </trkpt>
      <trkpt lat="43.50113" lon="6.37341">
        <ele>279.4</ele>
        <time>2023-01-11T12:45:25Z</time>
      </trkpt>
      <trkpt lat="43.5012" lon="6.37332">
        <ele>277.3</ele>
        <time>2023-01-11T12:45:33Z</time>
      </trkpt>
      <trkpt lat="43.50127" lon="6.3734">
        <ele>277.1</ele>
        <time>2023-01-11T12:45:49Z</time>
      </trkpt>
      <trkpt lat="43.50125" lon="6.37352">
        <ele>278.8</ele>
        <time>2023-01-11T12:45:59Z</time>
      </trkpt>
      <trkpt lat="43.50122" lon="6.37364">
        <ele>279.7</ele>
        <time>2023-01-11T12:46:07Z</time>
      </trkpt>
      <trkpt lat="43.50121" lon="6.37376">
        <ele>280.3</ele>
        <time>2023-01-11T12:46:17Z</time>
      </trkpt>
      <trkpt lat="43.50117" lon="6.37388">
        <ele>280.7</ele>
        <time>2023-01-11T12:46:26Z</time>
      </trkpt>
      <trkpt lat="43.50117" lon="6.37401">
        <ele>281</ele>
        <time>2023-01-11T12:46:37Z</time>
      </trkpt>
      <trkpt lat="43.50116" lon="6.37414">
        <ele>281.3</ele>
        <time>2023-01-11T12:46:55Z</time>
      </trkpt>
      <trkpt lat="43.50112" lon="6.37426">
        <ele>280.5</ele>
        <time>2023-01-11T12:48:21Z</time>
      </trkpt>
      <trkpt lat="43.5011" lon="6.37438">
        <ele>279.7</ele>
        <time>2023-01-11T12:48:30Z</time>
      </trkpt>
      <trkpt lat="43.50113" lon="6.37452">
        <ele>278</ele>
        <time>2023-01-11T12:48:45Z</time>
      </trkpt>
      <trkpt lat="43.50115" lon="6.37464">
        <ele>277.2</ele>
        <time>2023-01-11T12:48:53Z</time>
      </trkpt>
      <trkpt lat="43.50121" lon="6.37474">
        <ele>275.9</ele>
        <time>2023-01-11T12:48:59Z</time>
      </trkpt>
      <trkpt lat="43.50128" lon="6.37483">
        <ele>274.6</ele>
        <time>2023-01-11T12:49:05Z</time>
      </trkpt>
      <trkpt lat="43.50137" lon="6.3749">
        <ele>273.7</ele>
        <time>2023-01-11T12:49:12Z</time>
      </trkpt>
      <trkpt lat="43.50146" lon="6.37497">
        <ele>273.1</ele>
        <time>2023-01-11T12:49:18Z</time>
      </trkpt>
      <trkpt lat="43.50154" lon="6.37504">
        <ele>273</ele>
        <time>2023-01-11T12:49:26Z</time>
      </trkpt>
      <trkpt lat="43.50162" lon="6.37513">
        <ele>273.1</ele>
        <time>2023-01-11T12:49:34Z</time>
      </trkpt>
      <trkpt lat="43.5017" lon="6.37521">
        <ele>273.3</ele>
        <time>2023-01-11T12:49:44Z</time>
      </trkpt>
      <trkpt lat="43.50178" lon="6.37528">
        <ele>273.2</ele>
        <time>2023-01-11T12:49:53Z</time>
      </trkpt>
      <trkpt lat="43.50186" lon="6.37535">
        <ele>273.6</ele>
        <time>2023-01-11T12:50:04Z</time>
      </trkpt>
      <trkpt lat="43.50194" lon="6.37542">
        <ele>273.7</ele>
        <time>2023-01-11T12:50:13Z</time>
      </trkpt>
      <trkpt lat="43.50202" lon="6.37549">
        <ele>274.5</ele>
        <time>2023-01-11T12:50:23Z</time>
      </trkpt>
      <trkpt lat="43.50211" lon="6.37555">
        <ele>274.8</ele>
        <time>2023-01-11T12:50:31Z</time>
      </trkpt>
      <trkpt lat="43.50219" lon="6.3756">
        <ele>275.4</ele>
        <time>2023-01-11T12:50:40Z</time>
      </trkpt>
      <trkpt lat="43.50228" lon="6.37567">
        <ele>276.1</ele>
        <time>2023-01-11T12:50:51Z</time>
      </trkpt>
      <trkpt lat="43.50236" lon="6.37574">
        <ele>277.5</ele>
        <time>2023-01-11T12:51:03Z</time>
      </trkpt>
      <trkpt lat="43.50243" lon="6.37582">
        <ele>279.1</ele>
        <time>2023-01-11T12:51:14Z</time>
      </trkpt>
      <trkpt lat="43.50251" lon="6.37587">
        <ele>280.2</ele>
        <time>2023-01-11T12:51:22Z</time>
      </trkpt>
      <trkpt lat="43.5026" lon="6.37593">
        <ele>281.6</ele>
        <time>2023-01-11T12:51:32Z</time>
      </trkpt>
      <trkpt lat="43.50268" lon="6.376">
        <ele>282.6</ele>
        <time>2023-01-11T12:51:41Z</time>
      </trkpt>
      <trkpt lat="43.50276" lon="6.37606">
        <ele>283.8</ele>
        <time>2023-01-11T12:51:51Z</time>
      </trkpt>
      <trkpt lat="43.50282" lon="6.37617">
        <ele>284.7</ele>
        <time>2023-01-11T12:52:02Z</time>
      </trkpt>
      <trkpt lat="43.50288" lon="6.37628">
        <ele>285.6</ele>
        <time>2023-01-11T12:52:14Z</time>
      </trkpt>
      <trkpt lat="43.50295" lon="6.37636">
        <ele>286.4</ele>
        <time>2023-01-11T12:52:24Z</time>
      </trkpt>
      <trkpt lat="43.50303" lon="6.37644">
        <ele>288.4</ele>
        <time>2023-01-11T12:52:36Z</time>
      </trkpt>
      <trkpt lat="43.50307" lon="6.37655">
        <ele>290.4</ele>
        <time>2023-01-11T12:53:02Z</time>
      </trkpt>
      <trkpt lat="43.50316" lon="6.37653">
        <ele>290.6</ele>
        <time>2023-01-11T12:54:11Z</time>
      </trkpt>
      <trkpt lat="43.50322" lon="6.37663">
        <ele>292</ele>
        <time>2023-01-11T12:54:23Z</time>
      </trkpt>
      <trkpt lat="43.50328" lon="6.37674">
        <ele>292.3</ele>
        <time>2023-01-11T12:54:34Z</time>
      </trkpt>
      <trkpt lat="43.50334" lon="6.37684">
        <ele>291.6</ele>
        <time>2023-01-11T12:54:42Z</time>
      </trkpt>
      <trkpt lat="43.50342" lon="6.37692">
        <ele>291.5</ele>
        <time>2023-01-11T12:54:51Z</time>
      </trkpt>
      <trkpt lat="43.5035" lon="6.377">
        <ele>292</ele>
        <time>2023-01-11T12:55:01Z</time>
      </trkpt>
      <trkpt lat="43.50358" lon="6.37707">
        <ele>292</ele>
        <time>2023-01-11T12:55:10Z</time>
      </trkpt>
      <trkpt lat="43.50365" lon="6.37717">
        <ele>291.5</ele>
        <time>2023-01-11T12:55:22Z</time>
      </trkpt>
      <trkpt lat="43.50373" lon="6.37724">
        <ele>291.2</ele>
        <time>2023-01-11T12:55:35Z</time>
      </trkpt>
      <trkpt lat="43.5038" lon="6.37732">
        <ele>290.2</ele>
        <time>2023-01-11T12:55:49Z</time>
      </trkpt>
      <trkpt lat="43.50387" lon="6.37741">
        <ele>289.3</ele>
        <time>2023-01-11T12:56:01Z</time>
      </trkpt>
      <trkpt lat="43.50394" lon="6.37749">
        <ele>289</ele>
        <time>2023-01-11T12:56:12Z</time>
      </trkpt>
      <trkpt lat="43.50401" lon="6.37757">
        <ele>288.8</ele>
        <time>2023-01-11T12:56:22Z</time>
      </trkpt>
      <trkpt lat="43.50406" lon="6.37768">
        <ele>289.2</ele>
        <time>2023-01-11T12:56:35Z</time>
      </trkpt>
      <trkpt lat="43.5041" lon="6.3778">
        <ele>289.4</ele>
        <time>2023-01-11T12:56:54Z</time>
      </trkpt>
      <trkpt lat="43.50409" lon="6.37793">
        <ele>288.1</ele>
        <time>2023-01-11T12:57:28Z</time>
      </trkpt>
      <trkpt lat="43.50407" lon="6.37806">
        <ele>287.1</ele>
        <time>2023-01-11T12:57:41Z</time>
      </trkpt>
      <trkpt lat="43.50404" lon="6.37818">
        <ele>286.6</ele>
        <time>2023-01-11T12:57:48Z</time>
      </trkpt>
      <trkpt lat="43.504" lon="6.3783">
        <ele>286.6</ele>
        <time>2023-01-11T12:57:56Z</time>
      </trkpt>
      <trkpt lat="43.50398" lon="6.37843">
        <ele>286.5</ele>
        <time>2023-01-11T12:58:07Z</time>
      </trkpt>
      <trkpt lat="43.50396" lon="6.37855">
        <ele>286.2</ele>
        <time>2023-01-11T12:58:16Z</time>
      </trkpt>
      <trkpt lat="43.50394" lon="6.37868">
        <ele>286</ele>
        <time>2023-01-11T12:58:26Z</time>
      </trkpt>
      <trkpt lat="43.50393" lon="6.37882">
        <ele>285.5</ele>
        <time>2023-01-11T12:58:37Z</time>
      </trkpt>
      <trkpt lat="43.50395" lon="6.37896">
        <ele>284.9</ele>
        <time>2023-01-11T12:58:46Z</time>
      </trkpt>
      <trkpt lat="43.50396" lon="6.37909">
        <ele>284.4</ele>
        <time>2023-01-11T12:58:58Z</time>
      </trkpt>
      <trkpt lat="43.50397" lon="6.37922">
        <ele>283.5</ele>
        <time>2023-01-11T12:59:10Z</time>
      </trkpt>
      <trkpt lat="43.50399" lon="6.37935">
        <ele>282.3</ele>
        <time>2023-01-11T12:59:22Z</time>
      </trkpt>
      <trkpt lat="43.50402" lon="6.37947">
        <ele>281</ele>
        <time>2023-01-11T12:59:32Z</time>
      </trkpt>
      <trkpt lat="43.50408" lon="6.37957">
        <ele>278.9</ele>
        <time>2023-01-11T12:59:40Z</time>
      </trkpt>
      <trkpt lat="43.50409" lon="6.37969">
        <ele>279.6</ele>
        <time>2023-01-11T12:59:49Z</time>
      </trkpt>
      <trkpt lat="43.5041" lon="6.37982">
        <ele>278.7</ele>
        <time>2023-01-11T13:00:01Z</time>
      </trkpt>
      <trkpt lat="43.50416" lon="6.37993">
        <ele>277.2</ele>
        <time>2023-01-11T13:00:14Z</time>
      </trkpt>
      <trkpt lat="43.5042" lon="6.38006">
        <ele>276.4</ele>
        <time>2023-01-11T13:00:21Z</time>
      </trkpt>
      <trkpt lat="43.50428" lon="6.38013">
        <ele>276.1</ele>
        <time>2023-01-11T13:00:29Z</time>
      </trkpt>
      <trkpt lat="43.50436" lon="6.38021">
        <ele>275.5</ele>
        <time>2023-01-11T13:00:39Z</time>
      </trkpt>
      <trkpt lat="43.50445" lon="6.38026">
        <ele>274.8</ele>
        <time>2023-01-11T13:00:50Z</time>
      </trkpt>
      <trkpt lat="43.50449" lon="6.38037">
        <ele>273.8</ele>
        <time>2023-01-11T13:01:00Z</time>
      </trkpt>
      <trkpt lat="43.50455" lon="6.38047">
        <ele>272.5</ele>
        <time>2023-01-11T13:01:10Z</time>
      </trkpt>
      <trkpt lat="43.50461" lon="6.38056">
        <ele>271.4</ele>
        <time>2023-01-11T13:01:22Z</time>
      </trkpt>
      <trkpt lat="43.50469" lon="6.38063">
        <ele>270.4</ele>
        <time>2023-01-11T13:01:35Z</time>
      </trkpt>
      <trkpt lat="43.50478" lon="6.38068">
        <ele>269.2</ele>
        <time>2023-01-11T13:01:47Z</time>
      </trkpt>
      <trkpt lat="43.50487" lon="6.38071">
        <ele>267.7</ele>
        <time>2023-01-11T13:02:01Z</time>
      </trkpt>
      <trkpt lat="43.50496" lon="6.38074">
        <ele>266.2</ele>
        <time>2023-01-11T13:02:16Z</time>
      </trkpt>
      <trkpt lat="43.50505" lon="6.38078">
        <ele>264.9</ele>
        <time>2023-01-11T13:02:31Z</time>
      </trkpt>
      <trkpt lat="43.50514" lon="6.38078">
        <ele>263.8</ele>
        <time>2023-01-11T13:02:45Z</time>
      </trkpt>
      <trkpt lat="43.50524" lon="6.38077">
        <ele>262.6</ele>
        <time>2023-01-11T13:02:59Z</time>
      </trkpt>
      <trkpt lat="43.50533" lon="6.38073">
        <ele>261.8</ele>
        <time>2023-01-11T13:03:10Z</time>
      </trkpt>
      <trkpt lat="43.50542" lon="6.38073">
        <ele>260.2</ele>
        <time>2023-01-11T13:03:26Z</time>
      </trkpt>
      <trkpt lat="43.50551" lon="6.38076">
        <ele>258.1</ele>
        <time>2023-01-11T13:03:42Z</time>
      </trkpt>
      <trkpt lat="43.5056" lon="6.3808">
        <ele>256.8</ele>
        <time>2023-01-11T13:03:57Z</time>
      </trkpt>
      <trkpt lat="43.50569" lon="6.38079">
        <ele>255.5</ele>
        <time>2023-01-11T13:04:06Z</time>
      </trkpt>
      <trkpt lat="43.50578" lon="6.38073">
        <ele>254.3</ele>
        <time>2023-01-11T13:04:13Z</time>
      </trkpt>
      <trkpt lat="43.50587" lon="6.38069">
        <ele>253.8</ele>
        <time>2023-01-11T13:04:19Z</time>
      </trkpt>
      <trkpt lat="43.50595" lon="6.38065">
        <ele>252.2</ele>
        <time>2023-01-11T13:04:29Z</time>
      </trkpt>
      <trkpt lat="43.50604" lon="6.38061">
        <ele>251.2</ele>
        <time>2023-01-11T13:04:38Z</time>
      </trkpt>
      <trkpt lat="43.50614" lon="6.38058">
        <ele>249.9</ele>
        <time>2023-01-11T13:04:48Z</time>
      </trkpt>
      <trkpt lat="43.50623" lon="6.38055">
        <ele>248.7</ele>
        <time>2023-01-11T13:04:57Z</time>
      </trkpt>
      <trkpt lat="43.50632" lon="6.3805">
        <ele>248.4</ele>
        <time>2023-01-11T13:05:04Z</time>
      </trkpt>
      <trkpt lat="43.5064" lon="6.38045">
        <ele>247.4</ele>
        <time>2023-01-11T13:05:12Z</time>
      </trkpt>
      <trkpt lat="43.50648" lon="6.38038">
        <ele>246.5</ele>
        <time>2023-01-11T13:05:19Z</time>
      </trkpt>
      <trkpt lat="43.50656" lon="6.38035">
        <ele>245.6</ele>
        <time>2023-01-11T13:05:28Z</time>
      </trkpt>
      <trkpt lat="43.50666" lon="6.38035">
        <ele>244.4</ele>
        <time>2023-01-11T13:05:41Z</time>
      </trkpt>
      <trkpt lat="43.50676" lon="6.38034">
        <ele>243.9</ele>
        <time>2023-01-11T13:05:50Z</time>
      </trkpt>
      <trkpt lat="43.50686" lon="6.3803">
        <ele>243.4</ele>
        <time>2023-01-11T13:05:57Z</time>
      </trkpt>
      <trkpt lat="43.50695" lon="6.38027">
        <ele>242.5</ele>
        <time>2023-01-11T13:06:06Z</time>
      </trkpt>
      <trkpt lat="43.50704" lon="6.38022">
        <ele>241.7</ele>
        <time>2023-01-11T13:06:13Z</time>
      </trkpt>
      <trkpt lat="43.50712" lon="6.38016">
        <ele>240.7</ele>
        <time>2023-01-11T13:06:22Z</time>
      </trkpt>
      <trkpt lat="43.50721" lon="6.38011">
        <ele>239</ele>
        <time>2023-01-11T13:06:33Z</time>
      </trkpt>
      <trkpt lat="43.50728" lon="6.38003">
        <ele>237.8</ele>
        <time>2023-01-11T13:06:45Z</time>
      </trkpt>
      <trkpt lat="43.50738" lon="6.38003">
        <ele>237.1</ele>
        <time>2023-01-11T13:06:51Z</time>
      </trkpt>
      <trkpt lat="43.50744" lon="6.38011">
        <ele>239.2</ele>
        <time>2023-01-11T13:07:51Z</time>
      </trkpt>
      <trkpt lat="43.50737" lon="6.38004">
        <ele>237.9</ele>
        <time>2023-01-11T13:09:26Z</time>
      </trkpt>
      <trkpt lat="43.50746" lon="6.38005">
        <ele>237.6</ele>
        <time>2023-01-11T13:10:18Z</time>
      </trkpt>
      <trkpt lat="43.50755" lon="6.38005">
        <ele>237.1</ele>
        <time>2023-01-11T13:10:30Z</time>
      </trkpt>
      <trkpt lat="43.50763" lon="6.37996">
        <ele>237.1</ele>
        <time>2023-01-11T13:10:37Z</time>
      </trkpt>
      <trkpt lat="43.50772" lon="6.37991">
        <ele>237</ele>
        <time>2023-01-11T13:10:46Z</time>
      </trkpt>
      <trkpt lat="43.50781" lon="6.3799">
        <ele>236.7</ele>
        <time>2023-01-11T13:10:55Z</time>
      </trkpt>
      <trkpt lat="43.50791" lon="6.37987">
        <ele>236.2</ele>
        <time>2023-01-11T13:11:06Z</time>
      </trkpt>
      <trkpt lat="43.508" lon="6.37986">
        <ele>235.7</ele>
        <time>2023-01-11T13:11:16Z</time>
      </trkpt>
      <trkpt lat="43.50809" lon="6.37987">
        <ele>235.8</ele>
        <time>2023-01-11T13:11:25Z</time>
      </trkpt>
      <trkpt lat="43.50818" lon="6.37992">
        <ele>235.4</ele>
        <time>2023-01-11T13:11:34Z</time>
      </trkpt>
      <trkpt lat="43.50828" lon="6.37994">
        <ele>235.4</ele>
        <time>2023-01-11T13:12:12Z</time>
      </trkpt>
      <trkpt lat="43.50835" lon="6.38001">
        <ele>236.3</ele>
        <time>2023-01-11T13:13:04Z</time>
      </trkpt>
      <trkpt lat="43.50843" lon="6.38007">
        <ele>237.4</ele>
        <time>2023-01-11T13:13:19Z</time>
      </trkpt>
      <trkpt lat="43.50849" lon="6.38016">
        <ele>238.9</ele>
        <time>2023-01-11T13:13:30Z</time>
      </trkpt>
      <trkpt lat="43.50857" lon="6.38023">
        <ele>239.5</ele>
        <time>2023-01-11T13:13:44Z</time>
      </trkpt>
      <trkpt lat="43.50866" lon="6.38026">
        <ele>240.3</ele>
        <time>2023-01-11T13:13:56Z</time>
      </trkpt>
      <trkpt lat="43.50877" lon="6.38027">
        <ele>240.8</ele>
        <time>2023-01-11T13:14:03Z</time>
      </trkpt>
      <trkpt lat="43.50887" lon="6.38027">
        <ele>241.1</ele>
        <time>2023-01-11T13:14:11Z</time>
      </trkpt>
      <trkpt lat="43.50897" lon="6.38028">
        <ele>241.3</ele>
        <time>2023-01-11T13:14:18Z</time>
      </trkpt>
      <trkpt lat="43.50906" lon="6.38028">
        <ele>241.5</ele>
        <time>2023-01-11T13:14:24Z</time>
      </trkpt>
      <trkpt lat="43.50915" lon="6.38026">
        <ele>241.6</ele>
        <time>2023-01-11T13:14:31Z</time>
      </trkpt>
      <trkpt lat="43.50925" lon="6.38025">
        <ele>242.5</ele>
        <time>2023-01-11T13:14:39Z</time>
      </trkpt>
      <trkpt lat="43.50935" lon="6.38023">
        <ele>243.8</ele>
        <time>2023-01-11T13:14:48Z</time>
      </trkpt>
      <trkpt lat="43.50943" lon="6.38019">
        <ele>244.2</ele>
        <time>2023-01-11T13:14:57Z</time>
      </trkpt>
      <trkpt lat="43.50952" lon="6.38014">
        <ele>244.9</ele>
        <time>2023-01-11T13:15:08Z</time>
      </trkpt>
      <trkpt lat="43.50961" lon="6.3801">
        <ele>245.6</ele>
        <time>2023-01-11T13:15:20Z</time>
      </trkpt>
      <trkpt lat="43.5097" lon="6.38004">
        <ele>245.6</ele>
        <time>2023-01-11T13:15:33Z</time>
      </trkpt>
      <trkpt lat="43.5098" lon="6.38001">
        <ele>244.8</ele>
        <time>2023-01-11T13:15:44Z</time>
      </trkpt>
      <trkpt lat="43.50988" lon="6.37997">
        <ele>244.4</ele>
        <time>2023-01-11T13:15:54Z</time>
      </trkpt>
      <trkpt lat="43.50997" lon="6.37998">
        <ele>243.2</ele>
        <time>2023-01-11T13:16:06Z</time>
      </trkpt>
      <trkpt lat="43.51007" lon="6.38001">
        <ele>242.6</ele>
        <time>2023-01-11T13:16:16Z</time>
      </trkpt>
      <trkpt lat="43.51017" lon="6.38001">
        <ele>242.7</ele>
        <time>2023-01-11T13:16:24Z</time>
      </trkpt>
      <trkpt lat="43.51026" lon="6.38004">
        <ele>242.1</ele>
        <time>2023-01-11T13:16:34Z</time>
      </trkpt>
      <trkpt lat="43.51035" lon="6.38005">
        <ele>241.5</ele>
        <time>2023-01-11T13:16:45Z</time>
      </trkpt>
      <trkpt lat="43.51044" lon="6.38009">
        <ele>241.6</ele>
        <time>2023-01-11T13:16:57Z</time>
      </trkpt>
      <trkpt lat="43.51053" lon="6.38014">
        <ele>241.2</ele>
        <time>2023-01-11T13:17:08Z</time>
      </trkpt>
      <trkpt lat="43.51062" lon="6.38012">
        <ele>240.5</ele>
        <time>2023-01-11T13:17:19Z</time>
      </trkpt>
      <trkpt lat="43.51072" lon="6.38015">
        <ele>239</ele>
        <time>2023-01-11T13:17:30Z</time>
      </trkpt>
      <trkpt lat="43.5108" lon="6.3802">
        <ele>237.8</ele>
        <time>2023-01-11T13:17:43Z</time>
      </trkpt>
      <trkpt lat="43.5109" lon="6.38022">
        <ele>236.5</ele>
        <time>2023-01-11T13:17:57Z</time>
      </trkpt>
      <trkpt lat="43.51098" lon="6.38028">
        <ele>234.6</ele>
        <time>2023-01-11T13:18:09Z</time>
      </trkpt>
      <trkpt lat="43.51107" lon="6.3803">
        <ele>233.5</ele>
        <time>2023-01-11T13:18:27Z</time>
      </trkpt>
      <trkpt lat="43.51116" lon="6.38027">
        <ele>232.8</ele>
        <time>2023-01-11T13:18:39Z</time>
      </trkpt>
      <trkpt lat="43.51125" lon="6.38019">
        <ele>232.3</ele>
        <time>2023-01-11T13:18:48Z</time>
      </trkpt>
      <trkpt lat="43.51132" lon="6.38011">
        <ele>231.4</ele>
        <time>2023-01-11T13:18:57Z</time>
      </trkpt>
      <trkpt lat="43.5114" lon="6.38004">
        <ele>230.8</ele>
        <time>2023-01-11T13:19:06Z</time>
      </trkpt>
      <trkpt lat="43.51146" lon="6.37994">
        <ele>230.1</ele>
        <time>2023-01-11T13:19:15Z</time>
      </trkpt>
      <trkpt lat="43.51151" lon="6.37983">
        <ele>229.6</ele>
        <time>2023-01-11T13:19:25Z</time>
      </trkpt>
      <trkpt lat="43.51156" lon="6.37971">
        <ele>228.7</ele>
        <time>2023-01-11T13:19:35Z</time>
      </trkpt>
      <trkpt lat="43.51163" lon="6.37962">
        <ele>228.4</ele>
        <time>2023-01-11T13:19:43Z</time>
      </trkpt>
      <trkpt lat="43.51166" lon="6.37949">
        <ele>227.3</ele>
        <time>2023-01-11T13:19:57Z</time>
      </trkpt>
      <trkpt lat="43.5117" lon="6.37938">
        <ele>226.1</ele>
        <time>2023-01-11T13:20:08Z</time>
      </trkpt>
      <trkpt lat="43.51175" lon="6.37927">
        <ele>225.4</ele>
        <time>2023-01-11T13:20:20Z</time>
      </trkpt>
      <trkpt lat="43.51177" lon="6.37914">
        <ele>224.6</ele>
        <time>2023-01-11T13:20:34Z</time>
      </trkpt>
      <trkpt lat="43.51182" lon="6.37925">
        <ele>224.1</ele>
        <time>2023-01-11T13:20:56Z</time>
      </trkpt>
      <trkpt lat="43.51179" lon="6.37938">
        <ele>223.4</ele>
        <time>2023-01-11T13:21:10Z</time>
      </trkpt>
      <trkpt lat="43.51185" lon="6.37947">
        <ele>222.7</ele>
        <time>2023-01-11T13:21:22Z</time>
      </trkpt>
      <trkpt lat="43.51195" lon="6.37944">
        <ele>222.9</ele>
        <time>2023-01-11T13:21:52Z</time>
      </trkpt>
      <trkpt lat="43.51205" lon="6.37938">
        <ele>222.7</ele>
        <time>2023-01-11T13:22:11Z</time>
      </trkpt>
      <trkpt lat="43.51214" lon="6.37932">
        <ele>221.8</ele>
        <time>2023-01-11T13:22:20Z</time>
      </trkpt>
      <trkpt lat="43.51219" lon="6.37922">
        <ele>221.5</ele>
        <time>2023-01-11T13:22:30Z</time>
      </trkpt>
      <trkpt lat="43.51226" lon="6.37914">
        <ele>222</ele>
        <time>2023-01-11T13:22:37Z</time>
      </trkpt>
      <trkpt lat="43.51234" lon="6.37908">
        <ele>221.6</ele>
        <time>2023-01-11T13:22:46Z</time>
      </trkpt>
      <trkpt lat="43.51243" lon="6.37901">
        <ele>221.1</ele>
        <time>2023-01-11T13:22:56Z</time>
      </trkpt>
      <trkpt lat="43.51252" lon="6.37896">
        <ele>221</ele>
        <time>2023-01-11T13:23:04Z</time>
      </trkpt>
      <trkpt lat="43.51261" lon="6.37892">
        <ele>220.1</ele>
        <time>2023-01-11T13:23:13Z</time>
      </trkpt>
      <trkpt lat="43.51271" lon="6.37888">
        <ele>219.5</ele>
        <time>2023-01-11T13:23:19Z</time>
      </trkpt>
      <trkpt lat="43.5128" lon="6.37885">
        <ele>219.1</ele>
        <time>2023-01-11T13:23:25Z</time>
      </trkpt>
      <trkpt lat="43.51289" lon="6.37881">
        <ele>219.1</ele>
        <time>2023-01-11T13:23:32Z</time>
      </trkpt>
      <trkpt lat="43.51299" lon="6.37877">
        <ele>219</ele>
        <time>2023-01-11T13:23:38Z</time>
      </trkpt>
      <trkpt lat="43.51309" lon="6.37874">
        <ele>218.8</ele>
        <time>2023-01-11T13:23:44Z</time>
      </trkpt>
      <trkpt lat="43.51319" lon="6.3787">
        <ele>218.6</ele>
        <time>2023-01-11T13:23:51Z</time>
      </trkpt>
      <trkpt lat="43.51327" lon="6.37864">
        <ele>218.3</ele>
        <time>2023-01-11T13:23:59Z</time>
      </trkpt>
      <trkpt lat="43.51336" lon="6.37858">
        <ele>218.1</ele>
        <time>2023-01-11T13:24:10Z</time>
      </trkpt>
      <trkpt lat="43.51344" lon="6.37852">
        <ele>217.6</ele>
        <time>2023-01-11T13:24:18Z</time>
      </trkpt>
      <trkpt lat="43.51353" lon="6.37846">
        <ele>217.6</ele>
        <time>2023-01-11T13:24:27Z</time>
      </trkpt>
      <trkpt lat="43.51361" lon="6.37841">
        <ele>217.7</ele>
        <time>2023-01-11T13:24:34Z</time>
      </trkpt>
      <trkpt lat="43.51371" lon="6.37837">
        <ele>217.3</ele>
        <time>2023-01-11T13:24:43Z</time>
      </trkpt>
      <trkpt lat="43.51381" lon="6.37836">
        <ele>217.1</ele>
        <time>2023-01-11T13:24:52Z</time>
      </trkpt>
      <trkpt lat="43.51389" lon="6.37842">
        <ele>216.6</ele>
        <time>2023-01-11T13:25:00Z</time>
      </trkpt>
      <trkpt lat="43.51398" lon="6.37845">
        <ele>216.2</ele>
        <time>2023-01-11T13:25:08Z</time>
      </trkpt>
      <trkpt lat="43.51408" lon="6.37845">
        <ele>215.9</ele>
        <time>2023-01-11T13:25:15Z</time>
      </trkpt>
      <trkpt lat="43.51418" lon="6.37847">
        <ele>215.7</ele>
        <time>2023-01-11T13:25:23Z</time>
      </trkpt>
      <trkpt lat="43.51426" lon="6.37852">
        <ele>215.3</ele>
        <time>2023-01-11T13:25:31Z</time>
      </trkpt>
      <trkpt lat="43.51435" lon="6.37857">
        <ele>215.2</ele>
        <time>2023-01-11T13:25:38Z</time>
      </trkpt>
      <trkpt lat="43.51444" lon="6.37862">
        <ele>215.1</ele>
        <time>2023-01-11T13:25:45Z</time>
      </trkpt>
      <trkpt lat="43.51453" lon="6.37867">
        <ele>215.1</ele>
        <time>2023-01-11T13:25:53Z</time>
      </trkpt>
      <trkpt lat="43.51461" lon="6.37873">
        <ele>214.8</ele>
        <time>2023-01-11T13:26:01Z</time>
      </trkpt>
      <trkpt lat="43.51469" lon="6.37881">
        <ele>215</ele>
        <time>2023-01-11T13:26:14Z</time>
      </trkpt>
      <trkpt lat="43.51474" lon="6.37891">
        <ele>215.1</ele>
        <time>2023-01-11T13:26:22Z</time>
      </trkpt>
      <trkpt lat="43.5148" lon="6.37901">
        <ele>214.8</ele>
        <time>2023-01-11T13:26:29Z</time>
      </trkpt>
      <trkpt lat="43.51486" lon="6.37912">
        <ele>214.4</ele>
        <time>2023-01-11T13:26:36Z</time>
      </trkpt>
      <trkpt lat="43.51493" lon="6.37922">
        <ele>214.3</ele>
        <time>2023-01-11T13:26:43Z</time>
      </trkpt>
      <trkpt lat="43.51501" lon="6.37927">
        <ele>215.1</ele>
        <time>2023-01-11T13:26:52Z</time>
      </trkpt>
      <trkpt lat="43.5151" lon="6.37927">
        <ele>217.8</ele>
        <time>2023-01-11T13:27:04Z</time>
      </trkpt>
      <trkpt lat="43.5152" lon="6.3792">
        <ele>219</ele>
        <time>2023-01-11T13:27:12Z</time>
      </trkpt>
      <trkpt lat="43.51527" lon="6.37912">
        <ele>219.5</ele>
        <time>2023-01-11T13:27:21Z</time>
      </trkpt>
      <trkpt lat="43.51535" lon="6.37905">
        <ele>220.6</ele>
        <time>2023-01-11T13:27:39Z</time>
      </trkpt>
      <trkpt lat="43.51543" lon="6.37898">
        <ele>221.6</ele>
        <time>2023-01-11T13:27:49Z</time>
      </trkpt>
      <trkpt lat="43.51552" lon="6.37894">
        <ele>222.5</ele>
        <time>2023-01-11T13:28:01Z</time>
      </trkpt>
      <trkpt lat="43.51561" lon="6.3789">
        <ele>223.7</ele>
        <time>2023-01-11T13:28:12Z</time>
      </trkpt>
      <trkpt lat="43.51565" lon="6.37879">
        <ele>224.2</ele>
        <time>2023-01-11T13:28:20Z</time>
      </trkpt>
      <trkpt lat="43.51567" lon="6.37866">
        <ele>224</ele>
        <time>2023-01-11T13:28:28Z</time>
      </trkpt>
      <trkpt lat="43.51571" lon="6.37853">
        <ele>223.1</ele>
        <time>2023-01-11T13:28:38Z</time>
      </trkpt>
      <trkpt lat="43.51577" lon="6.37841">
        <ele>222.6</ele>
        <time>2023-01-11T13:28:46Z</time>
      </trkpt>
      <trkpt lat="43.51582" lon="6.3783">
        <ele>222.7</ele>
        <time>2023-01-11T13:28:52Z</time>
      </trkpt>
      <trkpt lat="43.51587" lon="6.37819">
        <ele>222.5</ele>
        <time>2023-01-11T13:29:00Z</time>
      </trkpt>
      <trkpt lat="43.51592" lon="6.37808">
        <ele>222.4</ele>
        <time>2023-01-11T13:29:05Z</time>
      </trkpt>
      <trkpt lat="43.51597" lon="6.37798">
        <ele>222.2</ele>
        <time>2023-01-11T13:29:11Z</time>
      </trkpt>
      <trkpt lat="43.51602" lon="6.37787">
        <ele>222.1</ele>
        <time>2023-01-11T13:29:20Z</time>
      </trkpt>
      <trkpt lat="43.51603" lon="6.37774">
        <ele>222</ele>
        <time>2023-01-11T13:29:29Z</time>
      </trkpt>
      <trkpt lat="43.51606" lon="6.3776">
        <ele>222.6</ele>
        <time>2023-01-11T13:29:39Z</time>
      </trkpt>
      <trkpt lat="43.51609" lon="6.37748">
        <ele>222.8</ele>
        <time>2023-01-11T13:29:46Z</time>
      </trkpt>
      <trkpt lat="43.51614" lon="6.37737">
        <ele>223</ele>
        <time>2023-01-11T13:29:52Z</time>
      </trkpt>
      <trkpt lat="43.51616" lon="6.37723">
        <ele>223.1</ele>
        <time>2023-01-11T13:30:04Z</time>
      </trkpt>
      <trkpt lat="43.51617" lon="6.37711">
        <ele>223.2</ele>
        <time>2023-01-11T13:30:11Z</time>
      </trkpt>
      <trkpt lat="43.51619" lon="6.37698">
        <ele>223.5</ele>
        <time>2023-01-11T13:30:21Z</time>
      </trkpt>
      <trkpt lat="43.51621" lon="6.37685">
        <ele>223.6</ele>
        <time>2023-01-11T13:30:28Z</time>
      </trkpt>
      <trkpt lat="43.51625" lon="6.37672">
        <ele>223.9</ele>
        <time>2023-01-11T13:30:35Z</time>
      </trkpt>
      <trkpt lat="43.51628" lon="6.3766">
        <ele>224.5</ele>
        <time>2023-01-11T13:30:43Z</time>
      </trkpt>
      <trkpt lat="43.5163" lon="6.37646">
        <ele>225</ele>
        <time>2023-01-11T13:30:53Z</time>
      </trkpt>
      <trkpt lat="43.51635" lon="6.37635">
        <ele>225</ele>
        <time>2023-01-11T13:31:01Z</time>
      </trkpt>
      <trkpt lat="43.5164" lon="6.37624">
        <ele>225.5</ele>
        <time>2023-01-11T13:31:13Z</time>
      </trkpt>
      <trkpt lat="43.51645" lon="6.37611">
        <ele>225.3</ele>
        <time>2023-01-11T13:31:20Z</time>
      </trkpt>
      <trkpt lat="43.5165" lon="6.376">
        <ele>225.2</ele>
        <time>2023-01-11T13:31:28Z</time>
      </trkpt>
      <trkpt lat="43.51657" lon="6.37591">
        <ele>225.5</ele>
        <time>2023-01-11T13:31:35Z</time>
      </trkpt>
      <trkpt lat="43.51663" lon="6.37582">
        <ele>225.8</ele>
        <time>2023-01-11T13:31:44Z</time>
      </trkpt>
      <trkpt lat="43.5167" lon="6.37574">
        <ele>226.2</ele>
        <time>2023-01-11T13:31:53Z</time>
      </trkpt>
      <trkpt lat="43.51679" lon="6.37565">
        <ele>226.7</ele>
        <time>2023-01-11T13:32:02Z</time>
      </trkpt>
      <trkpt lat="43.51685" lon="6.37555">
        <ele>227.3</ele>
        <time>2023-01-11T13:32:11Z</time>
      </trkpt>
      <trkpt lat="43.51691" lon="6.37545">
        <ele>227.6</ele>
        <time>2023-01-11T13:32:19Z</time>
      </trkpt>
      <trkpt lat="43.51696" lon="6.37533">
        <ele>228.2</ele>
        <time>2023-01-11T13:32:27Z</time>
      </trkpt>
      <trkpt lat="43.51702" lon="6.37522">
        <ele>228.9</ele>
        <time>2023-01-11T13:32:34Z</time>
      </trkpt>
      <trkpt lat="43.51706" lon="6.37511">
        <ele>229</ele>
        <time>2023-01-11T13:32:41Z</time>
      </trkpt>
      <trkpt lat="43.51711" lon="6.37499">
        <ele>229</ele>
        <time>2023-01-11T13:32:48Z</time>
      </trkpt>
      <trkpt lat="43.51715" lon="6.37487">
        <ele>228.9</ele>
        <time>2023-01-11T13:32:56Z</time>
      </trkpt>
      <trkpt lat="43.51716" lon="6.37474">
        <ele>228.9</ele>
        <time>2023-01-11T13:33:06Z</time>
      </trkpt>
      <trkpt lat="43.51714" lon="6.37461">
        <ele>229</ele>
        <time>2023-01-11T13:33:15Z</time>
      </trkpt>
      <trkpt lat="43.51712" lon="6.37448">
        <ele>229.5</ele>
        <time>2023-01-11T13:33:23Z</time>
      </trkpt>
      <trkpt lat="43.51711" lon="6.37435">
        <ele>229.7</ele>
        <time>2023-01-11T13:33:30Z</time>
      </trkpt>
      <trkpt lat="43.51714" lon="6.37423">
        <ele>229.4</ele>
        <time>2023-01-11T13:33:38Z</time>
      </trkpt>
      <trkpt lat="43.51723" lon="6.37419">
        <ele>229.2</ele>
        <time>2023-01-11T13:33:52Z</time>
      </trkpt>
      <trkpt lat="43.5173" lon="6.37411">
        <ele>228.9</ele>
        <time>2023-01-11T13:34:00Z</time>
      </trkpt>
      <trkpt lat="43.51735" lon="6.37399">
        <ele>228.3</ele>
        <time>2023-01-11T13:34:08Z</time>
      </trkpt>
      <trkpt lat="43.5174" lon="6.37388">
        <ele>228.2</ele>
        <time>2023-01-11T13:34:15Z</time>
      </trkpt>
      <trkpt lat="43.51746" lon="6.37378">
        <ele>228.5</ele>
        <time>2023-01-11T13:34:24Z</time>
      </trkpt>
      <trkpt lat="43.51753" lon="6.37369">
        <ele>228.6</ele>
        <time>2023-01-11T13:34:31Z</time>
      </trkpt>
      <trkpt lat="43.51758" lon="6.37358">
        <ele>228.5</ele>
        <time>2023-01-11T13:34:40Z</time>
      </trkpt>
      <trkpt lat="43.51751" lon="6.3735">
        <ele>228.4</ele>
        <time>2023-01-11T13:35:03Z</time>
      </trkpt>
      <trkpt lat="43.51744" lon="6.37342">
        <ele>228.2</ele>
        <time>2023-01-11T13:39:44Z</time>
      </trkpt>
      <trkpt lat="43.51735" lon="6.37339">
        <ele>227.5</ele>
        <time>2023-01-11T13:39:58Z</time>
      </trkpt>
      <trkpt lat="43.51727" lon="6.37334">
        <ele>225.3</ele>
        <time>2023-01-11T13:40:14Z</time>
      </trkpt>
      <trkpt lat="43.51722" lon="6.37323">
        <ele>222.9</ele>
        <time>2023-01-11T13:40:28Z</time>
      </trkpt>
      <trkpt lat="43.51713" lon="6.37319">
        <ele>221.3</ele>
        <time>2023-01-11T13:40:42Z</time>
      </trkpt>
      <trkpt lat="43.51704" lon="6.37313">
        <ele>220.3</ele>
        <time>2023-01-11T13:40:57Z</time>
      </trkpt>
      <trkpt lat="43.51695" lon="6.3731">
        <ele>219.2</ele>
        <time>2023-01-11T13:41:09Z</time>
      </trkpt>
      <trkpt lat="43.51686" lon="6.37311">
        <ele>218.1</ele>
        <time>2023-01-11T13:41:17Z</time>
      </trkpt>
      <trkpt lat="43.5168" lon="6.3732">
        <ele>216.8</ele>
        <time>2023-01-11T13:41:32Z</time>
      </trkpt>
      <trkpt lat="43.51671" lon="6.37321">
        <ele>215.8</ele>
        <time>2023-01-11T13:42:04Z</time>
      </trkpt>
      <trkpt lat="43.5166" lon="6.3732">
        <ele>213.3</ele>
        <time>2023-01-11T13:42:19Z</time>
      </trkpt>
      <trkpt lat="43.51651" lon="6.3732">
        <ele>212.4</ele>
        <time>2023-01-11T13:42:28Z</time>
      </trkpt>
      <trkpt lat="43.51659" lon="6.37311">
        <ele>211.8</ele>
        <time>2023-01-11T13:42:42Z</time>
      </trkpt>
      <trkpt lat="43.51654" lon="6.373">
        <ele>210.8</ele>
        <time>2023-01-11T13:43:18Z</time>
      </trkpt>
      <trkpt lat="43.51662" lon="6.37293">
        <ele>210</ele>
        <time>2023-01-11T13:43:45Z</time>
      </trkpt>
      <trkpt lat="43.51662" lon="6.3728">
        <ele>210.7</ele>
        <time>2023-01-11T13:44:22Z</time>
      </trkpt>
      <trkpt lat="43.51668" lon="6.3727">
        <ele>211.8</ele>
        <time>2023-01-11T13:44:58Z</time>
      </trkpt>
      <trkpt lat="43.51663" lon="6.3726">
        <ele>213</ele>
        <time>2023-01-11T13:45:29Z</time>
      </trkpt>
      <trkpt lat="43.51655" lon="6.37255">
        <ele>213.5</ele>
        <time>2023-01-11T13:46:23Z</time>
      </trkpt>
      <trkpt lat="43.51647" lon="6.37249">
        <ele>213.9</ele>
        <time>2023-01-11T13:48:15Z</time>
      </trkpt>
      <trkpt lat="43.51638" lon="6.37244">
        <ele>216.5</ele>
        <time>2023-01-11T13:48:55Z</time>
      </trkpt>
      <trkpt lat="43.5164" lon="6.37232">
        <ele>219</ele>
        <time>2023-01-11T13:49:19Z</time>
      </trkpt>
      <trkpt lat="43.5164" lon="6.37219">
        <ele>220.8</ele>
        <time>2023-01-11T13:49:31Z</time>
      </trkpt>
      <trkpt lat="43.51635" lon="6.37208">
        <ele>221.4</ele>
        <time>2023-01-11T13:49:42Z</time>
      </trkpt>
      <trkpt lat="43.51632" lon="6.37196">
        <ele>223.3</ele>
        <time>2023-01-11T13:49:54Z</time>
      </trkpt>
      <trkpt lat="43.51631" lon="6.37183">
        <ele>225.4</ele>
        <time>2023-01-11T13:50:07Z</time>
      </trkpt>
      <trkpt lat="43.51625" lon="6.37173">
        <ele>226.3</ele>
        <time>2023-01-11T13:50:27Z</time>
      </trkpt>
      <trkpt lat="43.5162" lon="6.37163">
        <ele>227.3</ele>
        <time>2023-01-11T13:50:39Z</time>
      </trkpt>
      <trkpt lat="43.51611" lon="6.37159">
        <ele>228.9</ele>
        <time>2023-01-11T13:51:18Z</time>
      </trkpt>
      <trkpt lat="43.51607" lon="6.37171">
        <ele>229.4</ele>
        <time>2023-01-11T13:51:39Z</time>
      </trkpt>
      <trkpt lat="43.51598" lon="6.3717">
        <ele>231.2</ele>
        <time>2023-01-11T13:51:54Z</time>
      </trkpt>
      <trkpt lat="43.51588" lon="6.37166">
        <ele>233.6</ele>
        <time>2023-01-11T13:52:13Z</time>
      </trkpt>
      <trkpt lat="43.51584" lon="6.37155">
        <ele>233.1</ele>
        <time>2023-01-11T13:52:28Z</time>
      </trkpt>
      <trkpt lat="43.51576" lon="6.37147">
        <ele>232.7</ele>
        <time>2023-01-11T13:52:42Z</time>
      </trkpt>
      <trkpt lat="43.51569" lon="6.37139">
        <ele>233.2</ele>
        <time>2023-01-11T13:52:53Z</time>
      </trkpt>
      <trkpt lat="43.5156" lon="6.37136">
        <ele>232.8</ele>
        <time>2023-01-11T13:53:02Z</time>
      </trkpt>
      <trkpt lat="43.51552" lon="6.37129">
        <ele>232.8</ele>
        <time>2023-01-11T13:53:14Z</time>
      </trkpt>
      <trkpt lat="43.51544" lon="6.37123">
        <ele>233.1</ele>
        <time>2023-01-11T13:53:27Z</time>
      </trkpt>
      <trkpt lat="43.51538" lon="6.37114">
        <ele>233.2</ele>
        <time>2023-01-11T13:53:38Z</time>
      </trkpt>
      <trkpt lat="43.51531" lon="6.37104">
        <ele>234</ele>
        <time>2023-01-11T13:53:50Z</time>
      </trkpt>
      <trkpt lat="43.51525" lon="6.37094">
        <ele>235.4</ele>
        <time>2023-01-11T13:54:13Z</time>
      </trkpt>
      <trkpt lat="43.51516" lon="6.37086">
        <ele>235.5</ele>
        <time>2023-01-11T13:54:25Z</time>
      </trkpt>
      <trkpt lat="43.51514" lon="6.37074">
        <ele>236.6</ele>
        <time>2023-01-11T13:54:38Z</time>
      </trkpt>
      <trkpt lat="43.51508" lon="6.37063">
        <ele>237.1</ele>
        <time>2023-01-11T13:54:49Z</time>
      </trkpt>
      <trkpt lat="43.51499" lon="6.37057">
        <ele>237.3</ele>
        <time>2023-01-11T13:55:00Z</time>
      </trkpt>
      <trkpt lat="43.5149" lon="6.37056">
        <ele>238.4</ele>
        <time>2023-01-11T13:55:16Z</time>
      </trkpt>
      <trkpt lat="43.51481" lon="6.37059">
        <ele>238.6</ele>
        <time>2023-01-11T13:55:29Z</time>
      </trkpt>
      <trkpt lat="43.51471" lon="6.3706">
        <ele>241.6</ele>
        <time>2023-01-11T13:55:48Z</time>
      </trkpt>
      <trkpt lat="43.51461" lon="6.37057">
        <ele>242.8</ele>
        <time>2023-01-11T13:56:03Z</time>
      </trkpt>
      <trkpt lat="43.51452" lon="6.37052">
        <ele>242.6</ele>
        <time>2023-01-11T13:56:15Z</time>
      </trkpt>
      <trkpt lat="43.51444" lon="6.37046">
        <ele>243.2</ele>
        <time>2023-01-11T13:56:23Z</time>
      </trkpt>
      <trkpt lat="43.51436" lon="6.3704">
        <ele>243.5</ele>
        <time>2023-01-11T13:56:33Z</time>
      </trkpt>
      <trkpt lat="43.51428" lon="6.37033">
        <ele>243.5</ele>
        <time>2023-01-11T13:56:44Z</time>
      </trkpt>
      <trkpt lat="43.51419" lon="6.37028">
        <ele>243.8</ele>
        <time>2023-01-11T13:56:57Z</time>
      </trkpt>
      <trkpt lat="43.5141" lon="6.37023">
        <ele>244.4</ele>
        <time>2023-01-11T13:57:10Z</time>
      </trkpt>
      <trkpt lat="43.514" lon="6.37021">
        <ele>244.7</ele>
        <time>2023-01-11T13:57:23Z</time>
      </trkpt>
      <trkpt lat="43.51391" lon="6.3702">
        <ele>244</ele>
        <time>2023-01-11T13:57:37Z</time>
      </trkpt>
      <trkpt lat="43.51382" lon="6.37023">
        <ele>246</ele>
        <time>2023-01-11T13:57:54Z</time>
      </trkpt>
      <trkpt lat="43.51371" lon="6.37024">
        <ele>245.6</ele>
        <time>2023-01-11T13:58:01Z</time>
      </trkpt>
      <trkpt lat="43.51362" lon="6.37026">
        <ele>247</ele>
        <time>2023-01-11T13:58:12Z</time>
      </trkpt>
      <trkpt lat="43.51353" lon="6.37027">
        <ele>247.6</ele>
        <time>2023-01-11T13:58:22Z</time>
      </trkpt>
      <trkpt lat="43.51343" lon="6.37027">
        <ele>247.3</ele>
        <time>2023-01-11T13:58:30Z</time>
      </trkpt>
      <trkpt lat="43.51334" lon="6.37025">
        <ele>247.9</ele>
        <time>2023-01-11T13:58:45Z</time>
      </trkpt>
      <trkpt lat="43.51324" lon="6.37023">
        <ele>248.2</ele>
        <time>2023-01-11T13:58:53Z</time>
      </trkpt>
      <trkpt lat="43.51314" lon="6.37022">
        <ele>248.1</ele>
        <time>2023-01-11T13:59:03Z</time>
      </trkpt>
      <trkpt lat="43.51304" lon="6.37017">
        <ele>248.2</ele>
        <time>2023-01-11T13:59:20Z</time>
      </trkpt>
      <trkpt lat="43.51295" lon="6.37015">
        <ele>247.9</ele>
        <time>2023-01-11T13:59:52Z</time>
      </trkpt>
      <trkpt lat="43.51287" lon="6.37009">
        <ele>248.8</ele>
        <time>2023-01-11T14:00:25Z</time>
      </trkpt>
      <trkpt lat="43.51282" lon="6.3702">
        <ele>252.4</ele>
        <time>2023-01-11T14:00:58Z</time>
      </trkpt>
      <trkpt lat="43.51284" lon="6.37033">
        <ele>253</ele>
        <time>2023-01-11T14:01:17Z</time>
      </trkpt>
      <trkpt lat="43.5129" lon="6.37043">
        <ele>253.9</ele>
        <time>2023-01-11T14:01:32Z</time>
      </trkpt>
      <trkpt lat="43.51299" lon="6.37049">
        <ele>255.3</ele>
        <time>2023-01-11T14:01:43Z</time>
      </trkpt>
      <trkpt lat="43.51307" lon="6.37055">
        <ele>257.3</ele>
        <time>2023-01-11T14:01:58Z</time>
      </trkpt>
      <trkpt lat="43.51316" lon="6.37059">
        <ele>256.8</ele>
        <time>2023-01-11T14:02:07Z</time>
      </trkpt>
      <trkpt lat="43.51325" lon="6.37063">
        <ele>256.7</ele>
        <time>2023-01-11T14:02:17Z</time>
      </trkpt>
      <trkpt lat="43.51334" lon="6.37066">
        <ele>257.7</ele>
        <time>2023-01-11T14:02:32Z</time>
      </trkpt>
      <trkpt lat="43.51343" lon="6.37071">
        <ele>258.4</ele>
        <time>2023-01-11T14:02:45Z</time>
      </trkpt>
      <trkpt lat="43.51352" lon="6.37067">
        <ele>258.6</ele>
        <time>2023-01-11T14:03:10Z</time>
      </trkpt>
      <trkpt lat="43.51343" lon="6.37065">
        <ele>260.6</ele>
        <time>2023-01-11T14:03:41Z</time>
      </trkpt>
      <trkpt lat="43.51334" lon="6.37072">
        <ele>259.7</ele>
        <time>2023-01-11T14:04:20Z</time>
      </trkpt>
      <trkpt lat="43.51325" lon="6.37069">
        <ele>260.6</ele>
        <time>2023-01-11T14:04:39Z</time>
      </trkpt>
      <trkpt lat="43.51316" lon="6.37067">
        <ele>260.7</ele>
        <time>2023-01-11T14:04:52Z</time>
      </trkpt>
      <trkpt lat="43.51308" lon="6.3706">
        <ele>260.4</ele>
        <time>2023-01-11T14:05:06Z</time>
      </trkpt>
      <trkpt lat="43.51298" lon="6.37059">
        <ele>260.5</ele>
        <time>2023-01-11T14:05:13Z</time>
      </trkpt>
      <trkpt lat="43.51289" lon="6.37055">
        <ele>262.7</ele>
        <time>2023-01-11T14:05:35Z</time>
      </trkpt>
      <trkpt lat="43.5128" lon="6.37058">
        <ele>264</ele>
        <time>2023-01-11T14:05:44Z</time>
      </trkpt>
      <trkpt lat="43.51271" lon="6.37056">
        <ele>266.2</ele>
        <time>2023-01-11T14:06:00Z</time>
      </trkpt>
      <trkpt lat="43.51263" lon="6.3705">
        <ele>266.3</ele>
        <time>2023-01-11T14:06:14Z</time>
      </trkpt>
      <trkpt lat="43.51254" lon="6.37045">
        <ele>266.6</ele>
        <time>2023-01-11T14:06:24Z</time>
      </trkpt>
      <trkpt lat="43.51246" lon="6.37039">
        <ele>267</ele>
        <time>2023-01-11T14:06:38Z</time>
      </trkpt>
      <trkpt lat="43.51237" lon="6.37042">
        <ele>266.7</ele>
        <time>2023-01-11T14:06:47Z</time>
      </trkpt>
      <trkpt lat="43.51229" lon="6.37035">
        <ele>267.4</ele>
        <time>2023-01-11T14:07:04Z</time>
      </trkpt>
      <trkpt lat="43.51219" lon="6.3703">
        <ele>268.4</ele>
        <time>2023-01-11T14:07:12Z</time>
      </trkpt>
      <trkpt lat="43.51209" lon="6.37028">
        <ele>268</ele>
        <time>2023-01-11T14:07:21Z</time>
      </trkpt>
      <trkpt lat="43.51201" lon="6.37022">
        <ele>269.1</ele>
        <time>2023-01-11T14:07:32Z</time>
      </trkpt>
      <trkpt lat="43.51192" lon="6.3702">
        <ele>269.5</ele>
        <time>2023-01-11T14:07:45Z</time>
      </trkpt>
      <trkpt lat="43.51184" lon="6.37014">
        <ele>270.3</ele>
        <time>2023-01-11T14:07:59Z</time>
      </trkpt>
      <trkpt lat="43.51174" lon="6.37011">
        <ele>270.2</ele>
        <time>2023-01-11T14:08:07Z</time>
      </trkpt>
      <trkpt lat="43.51165" lon="6.37013">
        <ele>270.1</ele>
        <time>2023-01-11T14:08:14Z</time>
      </trkpt>
      <trkpt lat="43.51157" lon="6.37007">
        <ele>270.5</ele>
        <time>2023-01-11T14:08:24Z</time>
      </trkpt>
      <trkpt lat="43.51148" lon="6.37005">
        <ele>270.2</ele>
        <time>2023-01-11T14:08:39Z</time>
      </trkpt>
      <trkpt lat="43.51138" lon="6.37006">
        <ele>270.9</ele>
        <time>2023-01-11T14:09:05Z</time>
      </trkpt>
      <trkpt lat="43.51129" lon="6.37006">
        <ele>271.6</ele>
        <time>2023-01-11T14:09:38Z</time>
      </trkpt>
      <trkpt lat="43.5112" lon="6.37003">
        <ele>274.2</ele>
        <time>2023-01-11T14:09:52Z</time>
      </trkpt>
      <trkpt lat="43.51111" lon="6.37003">
        <ele>277.1</ele>
        <time>2023-01-11T14:10:06Z</time>
      </trkpt>
      <trkpt lat="43.51101" lon="6.37003">
        <ele>279</ele>
        <time>2023-01-11T14:10:17Z</time>
      </trkpt>
      <trkpt lat="43.51092" lon="6.37002">
        <ele>282</ele>
        <time>2023-01-11T14:10:29Z</time>
      </trkpt>
      <trkpt lat="43.51082" lon="6.37002">
        <ele>283.1</ele>
        <time>2023-01-11T14:10:39Z</time>
      </trkpt>
      <trkpt lat="43.51072" lon="6.37004">
        <ele>285</ele>
        <time>2023-01-11T14:10:50Z</time>
      </trkpt>
      <trkpt lat="43.51063" lon="6.37006">
        <ele>288.1</ele>
        <time>2023-01-11T14:11:19Z</time>
      </trkpt>
      <trkpt lat="43.51054" lon="6.37006">
        <ele>289.2</ele>
        <time>2023-01-11T14:11:33Z</time>
      </trkpt>
      <trkpt lat="43.51045" lon="6.37004">
        <ele>291.7</ele>
        <time>2023-01-11T14:11:49Z</time>
      </trkpt>
      <trkpt lat="43.51035" lon="6.36999">
        <ele>293.3</ele>
        <time>2023-01-11T14:12:05Z</time>
      </trkpt>
      <trkpt lat="43.51026" lon="6.36995">
        <ele>295.7</ele>
        <time>2023-01-11T14:12:21Z</time>
      </trkpt>
      <trkpt lat="43.5102" lon="6.36987">
        <ele>296.9</ele>
        <time>2023-01-11T14:12:31Z</time>
      </trkpt>
      <trkpt lat="43.5101" lon="6.36982">
        <ele>297.7</ele>
        <time>2023-01-11T14:12:38Z</time>
      </trkpt>
      <trkpt lat="43.51001" lon="6.36978">
        <ele>298.8</ele>
        <time>2023-01-11T14:12:45Z</time>
      </trkpt>
      <trkpt lat="43.50993" lon="6.36971">
        <ele>299.8</ele>
        <time>2023-01-11T14:12:54Z</time>
      </trkpt>
      <trkpt lat="43.50984" lon="6.36968">
        <ele>301.2</ele>
        <time>2023-01-11T14:13:02Z</time>
      </trkpt>
      <trkpt lat="43.50975" lon="6.36964">
        <ele>302.2</ele>
        <time>2023-01-11T14:13:11Z</time>
      </trkpt>
      <trkpt lat="43.50967" lon="6.3696">
        <ele>302.5</ele>
        <time>2023-01-11T14:13:21Z</time>
      </trkpt>
      <trkpt lat="43.50957" lon="6.36958">
        <ele>303.3</ele>
        <time>2023-01-11T14:13:28Z</time>
      </trkpt>
      <trkpt lat="43.50949" lon="6.36954">
        <ele>303.8</ele>
        <time>2023-01-11T14:13:33Z</time>
      </trkpt>
      <trkpt lat="43.50948" lon="6.36942">
        <ele>304.1</ele>
        <time>2023-01-11T14:13:58Z</time>
      </trkpt>
      <trkpt lat="43.50939" lon="6.36944">
        <ele>304.8</ele>
        <time>2023-01-11T14:14:18Z</time>
      </trkpt>
      <trkpt lat="43.5093" lon="6.36948">
        <ele>303.4</ele>
        <time>2023-01-11T14:14:42Z</time>
      </trkpt>
      <trkpt lat="43.5092" lon="6.36945">
        <ele>303.4</ele>
        <time>2023-01-11T14:15:37Z</time>
      </trkpt>
      <trkpt lat="43.50911" lon="6.36942">
        <ele>302.3</ele>
        <time>2023-01-11T14:15:48Z</time>
      </trkpt>
      <trkpt lat="43.50902" lon="6.36938">
        <ele>300.9</ele>
        <time>2023-01-11T14:16:36Z</time>
      </trkpt>
      <trkpt lat="43.50893" lon="6.36935">
        <ele>299.9</ele>
        <time>2023-01-11T14:17:02Z</time>
      </trkpt>
      <trkpt lat="43.50884" lon="6.36935">
        <ele>298.8</ele>
        <time>2023-01-11T14:17:13Z</time>
      </trkpt>
      <trkpt lat="43.50874" lon="6.36937">
        <ele>297.8</ele>
        <time>2023-01-11T14:18:17Z</time>
      </trkpt>
      <trkpt lat="43.50865" lon="6.36939">
        <ele>296.2</ele>
        <time>2023-01-11T14:18:53Z</time>
      </trkpt>
      <trkpt lat="43.50856" lon="6.36942">
        <ele>295.2</ele>
        <time>2023-01-11T14:19:15Z</time>
      </trkpt>
      <trkpt lat="43.50847" lon="6.3694">
        <ele>294.3</ele>
        <time>2023-01-11T14:19:26Z</time>
      </trkpt>
      <trkpt lat="43.50838" lon="6.36941">
        <ele>293.7</ele>
        <time>2023-01-11T14:19:34Z</time>
      </trkpt>
      <trkpt lat="43.50829" lon="6.36944">
        <ele>291.8</ele>
        <time>2023-01-11T14:19:50Z</time>
      </trkpt>
      <trkpt lat="43.50829" lon="6.36957">
        <ele>290.6</ele>
        <time>2023-01-11T14:20:02Z</time>
      </trkpt>
      <trkpt lat="43.5083" lon="6.3697">
        <ele>292.4</ele>
        <time>2023-01-11T14:20:15Z</time>
      </trkpt>
      <trkpt lat="43.50831" lon="6.36983">
        <ele>294.9</ele>
        <time>2023-01-11T14:20:29Z</time>
      </trkpt>
      <trkpt lat="43.5083" lon="6.36997">
        <ele>296.1</ele>
        <time>2023-01-11T14:20:40Z</time>
      </trkpt>
      <trkpt lat="43.5083" lon="6.3701">
        <ele>298.1</ele>
        <time>2023-01-11T14:20:52Z</time>
      </trkpt>
      <trkpt lat="43.5083" lon="6.37023">
        <ele>299.9</ele>
        <time>2023-01-11T14:21:04Z</time>
      </trkpt>
      <trkpt lat="43.50829" lon="6.37035">
        <ele>301.2</ele>
        <time>2023-01-11T14:21:16Z</time>
      </trkpt>
      <trkpt lat="43.50831" lon="6.37048">
        <ele>302.4</ele>
        <time>2023-01-11T14:21:29Z</time>
      </trkpt>
      <trkpt lat="43.50832" lon="6.3706">
        <ele>303.7</ele>
        <time>2023-01-11T14:21:41Z</time>
      </trkpt>
      <trkpt lat="43.50834" lon="6.37072">
        <ele>304.3</ele>
        <time>2023-01-11T14:21:56Z</time>
      </trkpt>
      <trkpt lat="43.50838" lon="6.37085">
        <ele>305</ele>
        <time>2023-01-11T14:22:08Z</time>
      </trkpt>
      <trkpt lat="43.50841" lon="6.37097">
        <ele>305.5</ele>
        <time>2023-01-11T14:22:20Z</time>
      </trkpt>
      <trkpt lat="43.50841" lon="6.3711">
        <ele>305.6</ele>
        <time>2023-01-11T14:22:35Z</time>
      </trkpt>
      <trkpt lat="43.50843" lon="6.37122">
        <ele>305.7</ele>
        <time>2023-01-11T14:22:50Z</time>
      </trkpt>
      <trkpt lat="43.50844" lon="6.37135">
        <ele>305.8</ele>
        <time>2023-01-11T14:23:05Z</time>
      </trkpt>
      <trkpt lat="43.50846" lon="6.37147">
        <ele>305.7</ele>
        <time>2023-01-11T14:23:17Z</time>
      </trkpt>
      <trkpt lat="43.50849" lon="6.3716">
        <ele>305.5</ele>
        <time>2023-01-11T14:23:30Z</time>
      </trkpt>
      <trkpt lat="43.50851" lon="6.37173">
        <ele>305.2</ele>
        <time>2023-01-11T14:23:45Z</time>
      </trkpt>
      <trkpt lat="43.50852" lon="6.37186">
        <ele>304.2</ele>
        <time>2023-01-11T14:23:59Z</time>
      </trkpt>
      <trkpt lat="43.50854" lon="6.37199">
        <ele>303.1</ele>
        <time>2023-01-11T14:25:15Z</time>
      </trkpt>
      <trkpt lat="43.50855" lon="6.37211">
        <ele>303.5</ele>
        <time>2023-01-11T14:25:33Z</time>
      </trkpt>
      <trkpt lat="43.50846" lon="6.37214">
        <ele>302.7</ele>
        <time>2023-01-11T14:26:09Z</time>
      </trkpt>
      <trkpt lat="43.50838" lon="6.3722">
        <ele>302</ele>
        <time>2023-01-11T14:26:31Z</time>
      </trkpt>
      <trkpt lat="43.5083" lon="6.37226">
        <ele>301.6</ele>
        <time>2023-01-11T14:26:46Z</time>
      </trkpt>
      <trkpt lat="43.50824" lon="6.37235">
        <ele>302.1</ele>
        <time>2023-01-11T14:26:59Z</time>
      </trkpt>
      <trkpt lat="43.50825" lon="6.37248">
        <ele>302.1</ele>
        <time>2023-01-11T14:27:09Z</time>
      </trkpt>
      <trkpt lat="43.50825" lon="6.37261">
        <ele>302.4</ele>
        <time>2023-01-11T14:27:23Z</time>
      </trkpt>
      <trkpt lat="43.50829" lon="6.37273">
        <ele>302.5</ele>
        <time>2023-01-11T14:27:55Z</time>
      </trkpt>
      <trkpt lat="43.5083" lon="6.37285">
        <ele>302.6</ele>
        <time>2023-01-11T14:28:06Z</time>
      </trkpt>
      <trkpt lat="43.50828" lon="6.37298">
        <ele>302.1</ele>
        <time>2023-01-11T14:28:18Z</time>
      </trkpt>
      <trkpt lat="43.50825" lon="6.3731">
        <ele>301.7</ele>
        <time>2023-01-11T14:28:29Z</time>
      </trkpt>
      <trkpt lat="43.50822" lon="6.37324">
        <ele>300.8</ele>
        <time>2023-01-11T14:28:38Z</time>
      </trkpt>
      <trkpt lat="43.50818" lon="6.37336">
        <ele>300.1</ele>
        <time>2023-01-11T14:28:47Z</time>
      </trkpt>
      <trkpt lat="43.50821" lon="6.37348">
        <ele>300.3</ele>
        <time>2023-01-11T14:29:23Z</time>
      </trkpt>
      <trkpt lat="43.50816" lon="6.3736">
        <ele>299</ele>
        <time>2023-01-11T14:29:34Z</time>
      </trkpt>
      <trkpt lat="43.50813" lon="6.37373">
        <ele>298.2</ele>
        <time>2023-01-11T14:29:43Z</time>
      </trkpt>
      <trkpt lat="43.50805" lon="6.37382">
        <ele>297.7</ele>
        <time>2023-01-11T14:29:55Z</time>
      </trkpt>
      <trkpt lat="43.50796" lon="6.37386">
        <ele>298.4</ele>
        <time>2023-01-11T14:30:05Z</time>
      </trkpt>
      <trkpt lat="43.50788" lon="6.37391">
        <ele>298.9</ele>
        <time>2023-01-11T14:30:15Z</time>
      </trkpt>
      <trkpt lat="43.50779" lon="6.37396">
        <ele>297.9</ele>
        <time>2023-01-11T14:30:25Z</time>
      </trkpt>
      <trkpt lat="43.50771" lon="6.37404">
        <ele>298.8</ele>
        <time>2023-01-11T14:30:34Z</time>
      </trkpt>
      <trkpt lat="43.50764" lon="6.37412">
        <ele>298.3</ele>
        <time>2023-01-11T14:30:47Z</time>
      </trkpt>
      <trkpt lat="43.50755" lon="6.37416">
        <ele>298.8</ele>
        <time>2023-01-11T14:31:12Z</time>
      </trkpt>
      <trkpt lat="43.50745" lon="6.3742">
        <ele>299</ele>
        <time>2023-01-11T14:31:42Z</time>
      </trkpt>
      <trkpt lat="43.50737" lon="6.37426">
        <ele>301</ele>
        <time>2023-01-11T14:31:55Z</time>
      </trkpt>
      <trkpt lat="43.50729" lon="6.37429">
        <ele>302.4</ele>
        <time>2023-01-11T14:32:06Z</time>
      </trkpt>
      <trkpt lat="43.5072" lon="6.37435">
        <ele>303.7</ele>
        <time>2023-01-11T14:32:16Z</time>
      </trkpt>
      <trkpt lat="43.50712" lon="6.37441">
        <ele>305.8</ele>
        <time>2023-01-11T14:32:30Z</time>
      </trkpt>
      <trkpt lat="43.50703" lon="6.37447">
        <ele>307.9</ele>
        <time>2023-01-11T14:32:45Z</time>
      </trkpt>
      <trkpt lat="43.50695" lon="6.37453">
        <ele>310.2</ele>
        <time>2023-01-11T14:32:58Z</time>
      </trkpt>
      <trkpt lat="43.50685" lon="6.37455">
        <ele>311.7</ele>
        <time>2023-01-11T14:33:08Z</time>
      </trkpt>
      <trkpt lat="43.50677" lon="6.37459">
        <ele>314.3</ele>
        <time>2023-01-11T14:33:20Z</time>
      </trkpt>
      <trkpt lat="43.50667" lon="6.37463">
        <ele>315.2</ele>
        <time>2023-01-11T14:33:30Z</time>
      </trkpt>
      <trkpt lat="43.50658" lon="6.37468">
        <ele>317.4</ele>
        <time>2023-01-11T14:33:41Z</time>
      </trkpt>
      <trkpt lat="43.5065" lon="6.37472">
        <ele>318.8</ele>
        <time>2023-01-11T14:33:55Z</time>
      </trkpt>
      <trkpt lat="43.50641" lon="6.37476">
        <ele>321.4</ele>
        <time>2023-01-11T14:34:09Z</time>
      </trkpt>
      <trkpt lat="43.50633" lon="6.37482">
        <ele>322.1</ele>
        <time>2023-01-11T14:34:36Z</time>
      </trkpt>
      <trkpt lat="43.50624" lon="6.37485">
        <ele>323.6</ele>
        <time>2023-01-11T14:34:48Z</time>
      </trkpt>
      <trkpt lat="43.50615" lon="6.37489">
        <ele>324.7</ele>
        <time>2023-01-11T14:35:09Z</time>
      </trkpt>
      <trkpt lat="43.50606" lon="6.37491">
        <ele>325.3</ele>
        <time>2023-01-11T14:35:27Z</time>
      </trkpt>
      <trkpt lat="43.50597" lon="6.37493">
        <ele>324.9</ele>
        <time>2023-01-11T14:35:43Z</time>
      </trkpt>
      <trkpt lat="43.50587" lon="6.37494">
        <ele>325.4</ele>
        <time>2023-01-11T14:35:52Z</time>
      </trkpt>
      <trkpt lat="43.50578" lon="6.37494">
        <ele>326.3</ele>
        <time>2023-01-11T14:36:01Z</time>
      </trkpt>
      <trkpt lat="43.50568" lon="6.37495">
        <ele>326.6</ele>
        <time>2023-01-11T14:36:10Z</time>
      </trkpt>
      <trkpt lat="43.50558" lon="6.37494">
        <ele>327</ele>
        <time>2023-01-11T14:36:21Z</time>
      </trkpt>
      <trkpt lat="43.50548" lon="6.37494">
        <ele>327.3</ele>
        <time>2023-01-11T14:36:29Z</time>
      </trkpt>
      <trkpt lat="43.50538" lon="6.37494">
        <ele>327.6</ele>
        <time>2023-01-11T14:36:39Z</time>
      </trkpt>
      <trkpt lat="43.50529" lon="6.37493">
        <ele>327.4</ele>
        <time>2023-01-11T14:36:45Z</time>
      </trkpt>
      <trkpt lat="43.50519" lon="6.37493">
        <ele>327.3</ele>
        <time>2023-01-11T14:36:53Z</time>
      </trkpt>
      <trkpt lat="43.50509" lon="6.37493">
        <ele>328.3</ele>
        <time>2023-01-11T14:37:01Z</time>
      </trkpt>
      <trkpt lat="43.505" lon="6.37495">
        <ele>328.6</ele>
        <time>2023-01-11T14:37:10Z</time>
      </trkpt>
      <trkpt lat="43.50493" lon="6.37505">
        <ele>327.5</ele>
        <time>2023-01-11T14:37:25Z</time>
      </trkpt>
      <trkpt lat="43.50489" lon="6.37516">
        <ele>326.5</ele>
        <time>2023-01-11T14:37:50Z</time>
      </trkpt>
      <trkpt lat="43.50486" lon="6.37528">
        <ele>325</ele>
        <time>2023-01-11T14:38:27Z</time>
      </trkpt>
      <trkpt lat="43.50482" lon="6.3754">
        <ele>323.3</ele>
        <time>2023-01-11T14:38:39Z</time>
      </trkpt>
      <trkpt lat="43.50475" lon="6.3755">
        <ele>322.8</ele>
        <time>2023-01-11T14:38:48Z</time>
      </trkpt>
      <trkpt lat="43.50473" lon="6.37562">
        <ele>321.9</ele>
        <time>2023-01-11T14:38:56Z</time>
      </trkpt>
      <trkpt lat="43.50477" lon="6.37575">
        <ele>321</ele>
        <time>2023-01-11T14:39:04Z</time>
      </trkpt>
      <trkpt lat="43.50479" lon="6.37588">
        <ele>321</ele>
        <time>2023-01-11T14:39:12Z</time>
      </trkpt>
      <trkpt lat="43.50478" lon="6.37601">
        <ele>319.7</ele>
        <time>2023-01-11T14:39:21Z</time>
      </trkpt>
      <trkpt lat="43.50479" lon="6.37613">
        <ele>319.1</ele>
        <time>2023-01-11T14:39:29Z</time>
      </trkpt>
      <trkpt lat="43.5048" lon="6.37627">
        <ele>319.5</ele>
        <time>2023-01-11T14:39:38Z</time>
      </trkpt>
      <trkpt lat="43.50479" lon="6.37639">
        <ele>319.4</ele>
        <time>2023-01-11T14:39:47Z</time>
      </trkpt>
      <trkpt lat="43.50481" lon="6.37651">
        <ele>320.7</ele>
        <time>2023-01-11T14:40:04Z</time>
      </trkpt>
      <trkpt lat="43.50481" lon="6.37664">
        <ele>319.9</ele>
        <time>2023-01-11T14:40:17Z</time>
      </trkpt>
      <trkpt lat="43.50482" lon="6.37677">
        <ele>318.1</ele>
        <time>2023-01-11T14:40:28Z</time>
      </trkpt>
      <trkpt lat="43.50485" lon="6.37689">
        <ele>318.8</ele>
        <time>2023-01-11T14:40:37Z</time>
      </trkpt>
      <trkpt lat="43.50485" lon="6.37703">
        <ele>318.2</ele>
        <time>2023-01-11T14:40:47Z</time>
      </trkpt>
      <trkpt lat="43.50486" lon="6.37715">
        <ele>318.2</ele>
        <time>2023-01-11T14:40:56Z</time>
      </trkpt>
      <trkpt lat="43.50488" lon="6.37727">
        <ele>317.8</ele>
        <time>2023-01-11T14:41:04Z</time>
      </trkpt>
      <trkpt lat="43.50489" lon="6.3774">
        <ele>317.4</ele>
        <time>2023-01-11T14:41:14Z</time>
      </trkpt>
      <trkpt lat="43.5049" lon="6.37753">
        <ele>316.3</ele>
        <time>2023-01-11T14:41:32Z</time>
      </trkpt>
      <trkpt lat="43.5049" lon="6.37766">
        <ele>315.2</ele>
        <time>2023-01-11T14:41:44Z</time>
      </trkpt>
      <trkpt lat="43.5049" lon="6.37778">
        <ele>313.6</ele>
        <time>2023-01-11T14:41:56Z</time>
      </trkpt>
      <trkpt lat="43.50491" lon="6.37791">
        <ele>312.5</ele>
        <time>2023-01-11T14:42:07Z</time>
      </trkpt>
      <trkpt lat="43.50492" lon="6.37804">
        <ele>312</ele>
        <time>2023-01-11T14:42:19Z</time>
      </trkpt>
      <trkpt lat="43.50493" lon="6.37817">
        <ele>309.1</ele>
        <time>2023-01-11T14:42:34Z</time>
      </trkpt>
      <trkpt lat="43.50492" lon="6.3783">
        <ele>307</ele>
        <time>2023-01-11T14:42:50Z</time>
      </trkpt>
      <trkpt lat="43.50493" lon="6.37843">
        <ele>303.8</ele>
        <time>2023-01-11T14:43:11Z</time>
      </trkpt>
      <trkpt lat="43.50491" lon="6.37855">
        <ele>302.4</ele>
        <time>2023-01-11T14:43:27Z</time>
      </trkpt>
      <trkpt lat="43.50492" lon="6.37868">
        <ele>299.6</ele>
        <time>2023-01-11T14:43:46Z</time>
      </trkpt>
      <trkpt lat="43.50491" lon="6.3788">
        <ele>297.6</ele>
        <time>2023-01-11T14:44:09Z</time>
      </trkpt>
      <trkpt lat="43.50493" lon="6.37893">
        <ele>295.5</ele>
        <time>2023-01-11T14:44:33Z</time>
      </trkpt>
      <trkpt lat="43.50495" lon="6.37905">
        <ele>293.1</ele>
        <time>2023-01-11T14:44:52Z</time>
      </trkpt>
      <trkpt lat="43.50495" lon="6.37918">
        <ele>290.3</ele>
        <time>2023-01-11T14:45:09Z</time>
      </trkpt>
      <trkpt lat="43.50495" lon="6.37931">
        <ele>288.2</ele>
        <time>2023-01-11T14:45:29Z</time>
      </trkpt>
      <trkpt lat="43.50493" lon="6.37943">
        <ele>286.6</ele>
        <time>2023-01-11T14:45:42Z</time>
      </trkpt>
      <trkpt lat="43.50496" lon="6.37955">
        <ele>284.3</ele>
        <time>2023-01-11T14:45:53Z</time>
      </trkpt>
      <trkpt lat="43.50498" lon="6.37968">
        <ele>282.7</ele>
        <time>2023-01-11T14:46:01Z</time>
      </trkpt>
      <trkpt lat="43.50504" lon="6.37979">
        <ele>281.4</ele>
        <time>2023-01-11T14:46:21Z</time>
      </trkpt>
      <trkpt lat="43.50503" lon="6.37992">
        <ele>280.1</ele>
        <time>2023-01-11T14:46:33Z</time>
      </trkpt>
      <trkpt lat="43.50501" lon="6.38004">
        <ele>278.3</ele>
        <time>2023-01-11T14:46:44Z</time>
      </trkpt>
      <trkpt lat="43.50499" lon="6.38017">
        <ele>276.6</ele>
        <time>2023-01-11T14:46:55Z</time>
      </trkpt>
      <trkpt lat="43.50496" lon="6.38029">
        <ele>276.5</ele>
        <time>2023-01-11T14:47:05Z</time>
      </trkpt>
      <trkpt lat="43.50496" lon="6.38042">
        <ele>275</ele>
        <time>2023-01-11T14:48:29Z</time>
      </trkpt>
      <trkpt lat="43.50491" lon="6.38052">
        <ele>273.6</ele>
        <time>2023-01-11T14:48:52Z</time>
      </trkpt>
      <trkpt lat="43.50481" lon="6.38051">
        <ele>274.9</ele>
        <time>2023-01-11T14:49:16Z</time>
      </trkpt>
      <trkpt lat="43.50472" lon="6.38047">
        <ele>276</ele>
        <time>2023-01-11T14:49:37Z</time>
      </trkpt>
      <trkpt lat="43.50464" lon="6.38043">
        <ele>277.5</ele>
        <time>2023-01-11T14:49:52Z</time>
      </trkpt>
      <trkpt lat="43.50457" lon="6.38035">
        <ele>279.1</ele>
        <time>2023-01-11T14:50:11Z</time>
      </trkpt>
      <trkpt lat="43.50448" lon="6.38029">
        <ele>280</ele>
        <time>2023-01-11T14:50:24Z</time>
      </trkpt>
      <trkpt lat="43.50442" lon="6.38018">
        <ele>281.2</ele>
        <time>2023-01-11T14:50:38Z</time>
      </trkpt>
      <trkpt lat="43.50437" lon="6.38007">
        <ele>282.7</ele>
        <time>2023-01-11T14:50:52Z</time>
      </trkpt>
      <trkpt lat="43.5043" lon="6.37997">
        <ele>283.1</ele>
        <time>2023-01-11T14:51:05Z</time>
      </trkpt>
      <trkpt lat="43.50426" lon="6.37986">
        <ele>284.6</ele>
        <time>2023-01-11T14:51:21Z</time>
      </trkpt>
      <trkpt lat="43.50423" lon="6.37973">
        <ele>285.6</ele>
        <time>2023-01-11T14:51:33Z</time>
      </trkpt>
      <trkpt lat="43.5042" lon="6.37961">
        <ele>286.8</ele>
        <time>2023-01-11T14:51:45Z</time>
      </trkpt>
      <trkpt lat="43.50418" lon="6.37948">
        <ele>288.1</ele>
        <time>2023-01-11T14:51:56Z</time>
      </trkpt>
      <trkpt lat="43.50414" lon="6.37937">
        <ele>289.2</ele>
        <time>2023-01-11T14:52:08Z</time>
      </trkpt>
      <trkpt lat="43.50412" lon="6.37925">
        <ele>289.7</ele>
        <time>2023-01-11T14:52:19Z</time>
      </trkpt>
      <trkpt lat="43.5041" lon="6.37912">
        <ele>290.8</ele>
        <time>2023-01-11T14:52:33Z</time>
      </trkpt>
      <trkpt lat="43.5041" lon="6.379">
        <ele>291.5</ele>
        <time>2023-01-11T14:52:45Z</time>
      </trkpt>
      <trkpt lat="43.5041" lon="6.37887">
        <ele>292.2</ele>
        <time>2023-01-11T14:52:55Z</time>
      </trkpt>
      <trkpt lat="43.50411" lon="6.37874">
        <ele>291.8</ele>
        <time>2023-01-11T14:53:08Z</time>
      </trkpt>
      <trkpt lat="43.50413" lon="6.37861">
        <ele>292</ele>
        <time>2023-01-11T14:53:19Z</time>
      </trkpt>
      <trkpt lat="43.50414" lon="6.37848">
        <ele>292.4</ele>
        <time>2023-01-11T14:53:29Z</time>
      </trkpt>
      <trkpt lat="43.50415" lon="6.37835">
        <ele>292.6</ele>
        <time>2023-01-11T14:53:41Z</time>
      </trkpt>
      <trkpt lat="43.50417" lon="6.37821">
        <ele>293.1</ele>
        <time>2023-01-11T14:53:54Z</time>
      </trkpt>
      <trkpt lat="43.5042" lon="6.37808">
        <ele>294.1</ele>
        <time>2023-01-11T14:54:09Z</time>
      </trkpt>
      <trkpt lat="43.50421" lon="6.37796">
        <ele>294.7</ele>
        <time>2023-01-11T14:54:18Z</time>
      </trkpt>
      <trkpt lat="43.50422" lon="6.37783">
        <ele>295.4</ele>
        <time>2023-01-11T14:54:28Z</time>
      </trkpt>
      <trkpt lat="43.50419" lon="6.3777">
        <ele>295</ele>
        <time>2023-01-11T14:54:40Z</time>
      </trkpt>
      <trkpt lat="43.50417" lon="6.37758">
        <ele>295.2</ele>
        <time>2023-01-11T14:54:50Z</time>
      </trkpt>
      <trkpt lat="43.50411" lon="6.37747">
        <ele>295.1</ele>
        <time>2023-01-11T14:55:00Z</time>
      </trkpt>
      <trkpt lat="43.50404" lon="6.37738">
        <ele>295.1</ele>
        <time>2023-01-11T14:55:12Z</time>
      </trkpt>
      <trkpt lat="43.50397" lon="6.37731">
        <ele>295.7</ele>
        <time>2023-01-11T14:55:22Z</time>
      </trkpt>
      <trkpt lat="43.50389" lon="6.37724">
        <ele>295.9</ele>
        <time>2023-01-11T14:55:35Z</time>
      </trkpt>
      <trkpt lat="43.50383" lon="6.37714">
        <ele>297.1</ele>
        <time>2023-01-11T14:55:47Z</time>
      </trkpt>
      <trkpt lat="43.50375" lon="6.37705">
        <ele>297.1</ele>
        <time>2023-01-11T14:55:56Z</time>
      </trkpt>
      <trkpt lat="43.50368" lon="6.37697">
        <ele>298.1</ele>
        <time>2023-01-11T14:56:05Z</time>
      </trkpt>
      <trkpt lat="43.50359" lon="6.37689">
        <ele>297.6</ele>
        <time>2023-01-11T14:56:13Z</time>
      </trkpt>
      <trkpt lat="43.50351" lon="6.37681">
        <ele>297.6</ele>
        <time>2023-01-11T14:56:21Z</time>
      </trkpt>
      <trkpt lat="43.50344" lon="6.37673">
        <ele>297.7</ele>
        <time>2023-01-11T14:56:28Z</time>
      </trkpt>
      <trkpt lat="43.50337" lon="6.37665">
        <ele>297.2</ele>
        <time>2023-01-11T14:56:36Z</time>
      </trkpt>
      <trkpt lat="43.5033" lon="6.37654">
        <ele>295.9</ele>
        <time>2023-01-11T14:56:45Z</time>
      </trkpt>
      <trkpt lat="43.50322" lon="6.37648">
        <ele>294.6</ele>
        <time>2023-01-11T14:56:52Z</time>
      </trkpt>
      <trkpt lat="43.50314" lon="6.37642">
        <ele>293.3</ele>
        <time>2023-01-11T14:56:59Z</time>
      </trkpt>
      <trkpt lat="43.50305" lon="6.37636">
        <ele>292</ele>
        <time>2023-01-11T14:57:06Z</time>
      </trkpt>
      <trkpt lat="43.50296" lon="6.3763">
        <ele>290.7</ele>
        <time>2023-01-11T14:57:15Z</time>
      </trkpt>
      <trkpt lat="43.50289" lon="6.37622">
        <ele>290.2</ele>
        <time>2023-01-11T14:57:25Z</time>
      </trkpt>
      <trkpt lat="43.5028" lon="6.37614">
        <ele>288.7</ele>
        <time>2023-01-11T14:57:38Z</time>
      </trkpt>
      <trkpt lat="43.50272" lon="6.37604">
        <ele>287.8</ele>
        <time>2023-01-11T14:57:46Z</time>
      </trkpt>
      <trkpt lat="43.50262" lon="6.37601">
        <ele>286.5</ele>
        <time>2023-01-11T14:57:53Z</time>
      </trkpt>
      <trkpt lat="43.50255" lon="6.37591">
        <ele>285.1</ele>
        <time>2023-01-11T14:58:04Z</time>
      </trkpt>
      <trkpt lat="43.50248" lon="6.37583">
        <ele>284.5</ele>
        <time>2023-01-11T14:58:09Z</time>
      </trkpt>
      <trkpt lat="43.50241" lon="6.37575">
        <ele>282.9</ele>
        <time>2023-01-11T14:58:20Z</time>
      </trkpt>
      <trkpt lat="43.50233" lon="6.37566">
        <ele>281.8</ele>
        <time>2023-01-11T14:58:28Z</time>
      </trkpt>
      <trkpt lat="43.50225" lon="6.37561">
        <ele>280.8</ele>
        <time>2023-01-11T14:58:36Z</time>
      </trkpt>
      <trkpt lat="43.50216" lon="6.37552">
        <ele>280.7</ele>
        <time>2023-01-11T14:58:46Z</time>
      </trkpt>
      <trkpt lat="43.50208" lon="6.37543">
        <ele>279.7</ele>
        <time>2023-01-11T14:58:54Z</time>
      </trkpt>
      <trkpt lat="43.502" lon="6.37535">
        <ele>279.7</ele>
        <time>2023-01-11T14:59:02Z</time>
      </trkpt>
      <trkpt lat="43.50191" lon="6.37533">
        <ele>279.4</ele>
        <time>2023-01-11T14:59:11Z</time>
      </trkpt>
      <trkpt lat="43.50182" lon="6.37529">
        <ele>279.2</ele>
        <time>2023-01-11T14:59:18Z</time>
      </trkpt>
      <trkpt lat="43.50174" lon="6.37522">
        <ele>278.9</ele>
        <time>2023-01-11T14:59:25Z</time>
      </trkpt>
      <trkpt lat="43.50166" lon="6.37515">
        <ele>279</ele>
        <time>2023-01-11T14:59:32Z</time>
      </trkpt>
      <trkpt lat="43.50158" lon="6.37507">
        <ele>279.2</ele>
        <time>2023-01-11T14:59:40Z</time>
      </trkpt>
      <trkpt lat="43.50151" lon="6.37498">
        <ele>279.1</ele>
        <time>2023-01-11T14:59:47Z</time>
      </trkpt>
      <trkpt lat="43.50143" lon="6.37491">
        <ele>280.3</ele>
        <time>2023-01-11T14:59:55Z</time>
      </trkpt>
      <trkpt lat="43.50137" lon="6.37481">
        <ele>281.8</ele>
        <time>2023-01-11T15:00:02Z</time>
      </trkpt>
      <trkpt lat="43.50131" lon="6.37471">
        <ele>282.8</ele>
        <time>2023-01-11T15:00:10Z</time>
      </trkpt>
      <trkpt lat="43.50127" lon="6.37459">
        <ele>284</ele>
        <time>2023-01-11T15:00:20Z</time>
      </trkpt>
      <trkpt lat="43.50128" lon="6.37446">
        <ele>285.8</ele>
        <time>2023-01-11T15:00:35Z</time>
      </trkpt>
      <trkpt lat="43.50128" lon="6.37433">
        <ele>286.8</ele>
        <time>2023-01-11T15:00:46Z</time>
      </trkpt>
      <trkpt lat="43.50127" lon="6.37421">
        <ele>287.2</ele>
        <time>2023-01-11T15:00:56Z</time>
      </trkpt>
      <trkpt lat="43.5013" lon="6.37409">
        <ele>286.8</ele>
        <time>2023-01-11T15:01:05Z</time>
      </trkpt>
      <trkpt lat="43.50133" lon="6.37395">
        <ele>286.3</ele>
        <time>2023-01-11T15:01:13Z</time>
      </trkpt>
      <trkpt lat="43.50135" lon="6.37382">
        <ele>285.8</ele>
        <time>2023-01-11T15:01:22Z</time>
      </trkpt>
      <trkpt lat="43.50139" lon="6.37369">
        <ele>285.8</ele>
        <time>2023-01-11T15:01:31Z</time>
      </trkpt>
      <trkpt lat="43.5014" lon="6.37355">
        <ele>284.4</ele>
        <time>2023-01-11T15:01:39Z</time>
      </trkpt>
      <trkpt lat="43.50135" lon="6.37345">
        <ele>283.5</ele>
        <time>2023-01-11T15:01:47Z</time>
      </trkpt>
      <trkpt lat="43.50127" lon="6.37335">
        <ele>282.4</ele>
        <time>2023-01-11T15:01:55Z</time>
      </trkpt>
      <trkpt lat="43.50119" lon="6.37328">
        <ele>281.8</ele>
        <time>2023-01-11T15:02:03Z</time>
      </trkpt>
      <trkpt lat="43.5011" lon="6.37327">
        <ele>281.7</ele>
        <time>2023-01-11T15:02:18Z</time>
      </trkpt>
      <trkpt lat="43.50101" lon="6.37324">
        <ele>283.1</ele>
        <time>2023-01-11T15:02:28Z</time>
      </trkpt>
      <trkpt lat="43.50092" lon="6.37325">
        <ele>285.8</ele>
        <time>2023-01-11T15:03:02Z</time>
      </trkpt>
      <trkpt lat="43.50083" lon="6.37326">
        <ele>287.7</ele>
        <time>2023-01-11T15:03:22Z</time>
      </trkpt>
      <trkpt lat="43.50075" lon="6.37332">
        <ele>288</ele>
        <time>2023-01-11T15:04:24Z</time>
      </trkpt>
      <trkpt lat="43.50074" lon="6.37337">
        <ele>288.6</ele>
        <time>2023-01-11T15:05:53Z</time>
      </trkpt>
    </trkseg>
  </trk>
</gpx>